Terminal Aerodrome Forecast
Issued by NWS

Home | Current Version | Previous Version | Text Only | Print | Product List | Glossary On
Versions: 1 2 3 4 5 6 7 8 9 10 11 12 13 14
000
FTAK31 PAJN 170500 RRA
TAFAJN
TAF
PAJN 170542Z 1706/1806 07003KT P6SM BKN150
     FM171500 VRB04KT P6SM VCSH BKN050 OVC100
     FM172100 VRB05KT P6SM -SHRA SCT020 BKN040
     FM180100 11006KT P6SM -SHRA BKN020 OVC040=

USA.gov is the U.S. government's official web portal to all federal, state and local government web resources and services.